Time;durP1;ratioP1;P1;durP2;ratioP2;P2;SDS_P1;SDS_P2;PMS_P1;PMS_P2;Temp;Humidity;BMP_temperature;BMP_pressure;BME280_temperature;BME280_humidity;BME280_pressure;Samples;Min_cycle;Max_cycle;Signal;HPM_P1;HPM_P2
2024/02/24 00:01:11;;;;;;;7.50;3.85;;;3.40;1.00;;;;;;7373076;19;20896;-71
2024/02/24 00:03:44;;;;;;;14.80;3.97;;;3.40;1.00;;;;;;7369709;19;20094;-72
2024/02/24 00:06:14;;;;;;;7.72;3.78;;;3.40;1.00;;;;;;7369943;19;20111;-71
2024/02/24 00:08:44;;;;;;;9.32;3.80;;;3.40;1.00;;;;;;7373640;19;20037;-72
2024/02/24 00:11:14;;;;;;;8.27;3.47;;;3.40;1.00;;;;;;7373829;19;20040;-71
2024/02/24 00:13:44;;;;;;;7.70;3.28;;;3.50;1.00;;;;;;7370718;19;20022;-72
2024/02/24 00:16:15;;;;;;;8.73;4.03;;;3.50;1.00;;;;;;7372361;19;20007;-71
2024/02/24 00:18:48;;;;;;;6.10;3.70;;;3.50;1.00;;;;;;7373918;19;20077;-71
2024/02/24 00:21:18;;;;;;;8.60;3.50;;;3.60;1.00;;;;;;7373624;19;20085;-71
2024/02/24 00:23:48;;;;;;;5.70;3.00;;;3.60;1.00;;;;;;7370862;19;20035;-71
2024/02/24 00:26:18;;;;;;;5.47;3.50;;;3.60;1.00;;;;;;7372038;19;20586;-71
2024/02/24 00:28:48;;;;;;;7.43;3.35;;;3.60;1.00;;;;;;7371441;19;20035;-71
2024/02/24 00:31:19;;;;;;;7.65;3.10;;;3.70;1.00;;;;;;7372342;19;20494;-70
2024/02/24 00:33:52;;;;;;;6.00;3.10;;;3.80;1.00;;;;;;7369602;19;20062;-71
2024/02/24 00:36:22;;;;;;;5.72;3.10;;;3.70;1.00;;;;;;7370903;19;20019;-72
2024/02/24 00:38:52;;;;;;;5.35;3.63;;;3.70;1.00;;;;;;7371207;19;20018;-72
2024/02/24 00:41:22;;;;;;;5.43;2.72;;;3.60;1.00;;;;;;7372707;19;20010;-72
2024/02/24 00:43:52;;;;;;;6.40;3.50;;;3.50;1.00;;;;;;7370646;19;20032;-73
2024/02/24 00:46:22;;;;;;;7.75;3.28;;;3.40;1.00;;;;;;7372622;19;20018;-72
2024/02/24 00:48:54;;;;;;;9.98;3.50;;;3.30;1.00;;;;;;7373132;19;20010;-71
2024/02/24 00:51:24;;;;;;;6.47;3.60;;;3.30;1.00;;;;;;7373618;19;20032;-70
2024/02/24 00:53:54;;;;;;;10.90;3.53;;;3.30;1.00;;;;;;7367923;19;20428;-71
2024/02/24 00:56:24;;;;;;;6.38;3.13;;;3.30;1.00;;;;;;7371785;19;20014;-71
2024/02/24 00:58:54;;;;;;;11.40;4.07;;;3.20;1.00;;;;;;7371158;19;20013;-71
2024/02/24 01:01:25;;;;;;;7.47;3.40;;;3.00;1.00;;;;;;7371012;19;20019;-71
2024/02/24 01:03:57;;;;;;;7.28;3.85;;;3.00;1.00;;;;;;7369181;19;20017;-71
2024/02/24 01:06:28;;;;;;;9.73;3.40;;;3.00;1.00;;;;;;7371600;19;20078;-71
2024/02/24 01:08:58;;;;;;;6.90;3.00;;;2.90;1.00;;;;;;7371185;19;20021;-71
2024/02/24 01:11:28;;;;;;;6.72;3.25;;;2.90;1.00;;;;;;7372534;19;20026;-71
2024/02/24 01:13:58;;;;;;;6.50;3.35;;;3.00;1.00;;;;;;7370324;19;20011;-70
2024/02/24 01:16:28;;;;;;;8.32;2.80;;;3.10;1.00;;;;;;7371467;19;20078;-70
2024/02/24 01:19:01;;;;;;;6.10;3.22;;;3.10;1.00;;;;;;7371907;19;20491;-69
2024/02/24 01:21:31;;;;;;;6.32;3.13;;;3.10;1.00;;;;;;7371735;19;20134;-70
2024/02/24 01:24:02;;;;;;;3.92;2.78;;;3.10;1.00;;;;;;7369726;19;20022;-71
2024/02/24 01:26:32;;;;;;;3.28;2.33;;;3.10;1.00;;;;;;7374664;19;20017;-71
2024/02/24 01:29:02;;;;;;;5.40;2.97;;;3.20;1.00;;;;;;7374651;19;20756;-70
2024/02/24 01:31:32;;;;;;;4.43;3.00;;;3.20;1.00;;;;;;7371799;19;20089;-71
2024/02/24 01:34:05;;;;;;;5.65;2.90;;;3.20;1.00;;;;;;7368370;19;20027;-72
2024/02/24 01:36:35;;;;;;;4.63;2.65;;;3.40;1.00;;;;;;7370576;19;20723;-72
2024/02/24 01:39:05;;;;;;;8.77;3.50;;;3.40;1.00;;;;;;7370596;19;20018;-72
2024/02/24 01:41:35;;;;;;;6.72;3.22;;;3.40;1.00;;;;;;7371429;19;20035;-72
2024/02/24 01:44:05;;;;;;;5.85;2.88;;;3.50;1.00;;;;;;7368821;19;20010;-72
2024/02/24 01:46:35;;;;;;;7.68;3.28;;;3.50;1.00;;;;;;7370441;19;20092;-72
2024/02/24 01:49:09;;;;;;;5.03;2.67;;;3.50;1.00;;;;;;7370130;19;20018;-72
2024/02/24 01:51:39;;;;;;;6.20;2.50;;;3.50;1.00;;;;;;7371771;19;20784;-71
2024/02/24 01:54:10;;;;;;;7.68;2.53;;;3.60;1.00;;;;;;7368316;19;20014;-72
2024/02/24 01:56:41;;;;;;;4.72;2.42;;;3.80;1.00;;;;;;7369747;19;20021;-71
2024/02/24 01:59:12;;;;;;;4.15;2.28;;;4.10;1.00;;;;;;7373150;19;20027;-72
2024/02/24 02:01:43;;;;;;;3.63;2.17;;;4.20;1.00;;;;;;7372176;19;20014;-72
2024/02/24 02:04:16;;;;;;;4.03;2.08;;;4.20;1.00;;;;;;7365984;19;20010;-71
2024/02/24 02:06:46;;;;;;;5.30;2.40;;;4.30;1.00;;;;;;7363441;19;20003;-72
2024/02/24 02:09:16;;;;;;;3.63;2.30;;;4.30;1.00;;;;;;7348135;19;20736;-72
2024/02/24 02:11:46;;;;;;;4.28;2.33;;;4.20;1.00;;;;;;7368552;19;20551;-70
2024/02/24 02:14:31;;;;;;;4.35;2.28;;;4.20;1.00;;;;;;7369733;19;20014;-70
2024/02/24 02:17:01;;;;;;;6.78;2.28;;;4.20;1.00;;;;;;7368646;19;20397;-70
2024/02/24 02:19:34;;;;;;;7.13;2.25;;;4.30;1.00;;;;;;7370501;19;20082;-70
2024/02/24 02:22:08;;;;;;;2.40;1.40;;;4.50;1.00;;;;;;7369114;19;20062;-70
2024/02/24 02:24:41;;;;;;;2.35;1.48;;;4.70;1.00;;;;;;7367940;19;20762;-73
2024/02/24 02:27:11;;;;;;;2.90;1.33;;;4.80;1.00;;;;;;7367671;19;20003;-72
2024/02/24 02:29:42;;;;;;;4.47;1.60;;;4.90;1.00;;;;;;7370652;19;20002;-73
2024/02/24 02:32:12;;;;;;;2.05;1.15;;;4.80;1.00;;;;;;7369791;19;20403;-72
2024/02/24 02:34:42;;;;;;;3.25;1.50;;;4.80;1.00;;;;;;7365392;19;20018;-72
2024/02/24 02:37:12;;;;;;;3.45;1.70;;;4.70;1.00;;;;;;7367844;19;20685;-72
2024/02/24 02:39:45;;;;;;;2.63;1.45;;;4.60;1.00;;;;;;7370518;19;20080;-72
2024/02/24 02:42:15;;;;;;;3.67;1.40;;;4.50;1.00;;;;;;7366729;19;20006;-71
2024/02/24 02:44:45;;;;;;;5.05;1.42;;;4.40;1.00;;;;;;7366426;19;20015;-72
2024/02/24 02:47:16;;;;;;;3.85;1.40;;;4.30;1.00;;;;;;7369510;19;20013;-72
2024/02/24 02:49:52;;;;;;;3.42;1.38;;;4.30;1.00;;;;;;7368735;19;20029;-71
2024/02/24 02:52:22;;;;;;;3.80;1.48;;;4.40;1.00;;;;;;7367433;19;20015;-71
2024/02/24 02:54:55;;;;;;;4.35;1.20;;;4.40;1.00;;;;;;7363157;19;20013;-71
2024/02/24 02:57:26;;;;;;;2.45;1.00;;;4.50;1.00;;;;;;7367784;19;20346;-71
2024/02/24 02:59:56;;;;;;;1.27;0.80;;;4.50;1.00;;;;;;7365016;19;20015;-73
2024/02/24 03:02:26;;;;;;;2.78;1.08;;;4.50;1.00;;;;;;7367381;19;20015;-72
2024/02/24 03:04:56;;;;;;;2.67;1.00;;;4.50;1.00;;;;;;7367854;19;20453;-72
2024/02/24 03:07:26;;;;;;;1.50;0.90;;;4.40;1.00;;;;;;7369439;19;20021;-71
2024/02/24 03:09:59;;;;;;;3.20;0.85;;;4.40;1.00;;;;;;7368699;19;20011;-72
2024/02/24 03:12:29;;;;;;;1.20;0.90;;;4.40;1.00;;;;;;7367862;19;20023;-71
2024/02/24 03:15:01;;;;;;;2.05;1.00;;;4.40;1.00;;;;;;7366150;19;20026;-72
2024/02/24 03:17:31;;;;;;;4.10;0.93;;;4.40;1.00;;;;;;7368234;19;20011;-72
2024/02/24 03:20:01;;;;;;;1.83;0.80;;;4.40;1.00;;;;;;7369001;19;20051;-72
2024/02/24 03:22:38;;;;;;;0.85;0.60;;;4.40;1.00;;;;;;7366901;19;20030;-72
2024/02/24 03:25:11;;;;;;;0.95;0.60;;;4.50;1.00;;;;;;7373571;19;20090;-72
2024/02/24 03:27:41;;;;;;;2.15;0.70;;;4.50;1.00;;;;;;7374775;19;20011;-70
2024/02/24 03:30:12;;;;;;;1.30;0.88;;;4.60;1.00;;;;;;7376229;19;20013;-72
2024/02/24 03:32:42;;;;;;;3.50;1.35;;;4.70;1.00;;;;;;7374159;19;20015;-70
2024/02/24 03:35:13;;;;;;;1.80;0.70;;;4.70;1.00;;;;;;7375005;19;20014;-70
2024/02/24 03:37:43;;;;;;;1.77;0.70;;;4.70;1.00;;;;;;7374591;19;20468;-72
2024/02/24 03:40:17;;;;;;;0.98;0.70;;;4.70;1.00;;;;;;7374637;19;20015;-69
2024/02/24 03:42:47;;;;;;;1.95;0.70;;;4.70;1.00;;;;;;7373073;19;20048;-70
2024/02/24 03:45:17;;;;;;;3.15;0.95;;;4.70;1.00;;;;;;7373906;19;20467;-70
2024/02/24 03:47:47;;;;;;;1.98;0.85;;;4.60;1.00;;;;;;7375233;19;20021;-70
2024/02/24 03:50:18;;;;;;;1.30;0.73;;;4.60;1.00;;;;;;7375520;19;20007;-71
2024/02/24 03:52:48;;;;;;;2.22;1.00;;;4.60;1.00;;;;;;7378551;19;20014;-71
2024/02/24 03:55:20;;;;;;;2.63;1.27;;;4.60;1.00;;;;;;7371864;19;20007;-72
2024/02/24 03:57:50;;;;;;;2.00;0.90;;;4.50;1.00;;;;;;7372176;19;20082;-72
2024/02/24 04:00:21;;;;;;;2.05;0.80;;;4.50;1.00;;;;;;7373998;19;20014;-71
2024/02/24 04:02:51;;;;;;;1.10;0.60;;;4.50;1.00;;;;;;7372551;19;20018;-72
2024/02/24 04:05:21;;;;;;;1.80;0.70;;;4.40;1.00;;;;;;7372988;19;20019;-72
2024/02/24 04:07:51;;;;;;;1.85;0.80;;;4.30;1.00;;;;;;7376626;19;20014;-71
2024/02/24 04:10:24;;;;;;;4.40;0.98;;;4.30;1.00;;;;;;7374035;19;20003;-71
2024/02/24 04:12:54;;;;;;;3.13;1.25;;;4.30;1.00;;;;;;7372697;19;20318;-71
2024/02/24 04:15:25;;;;;;;1.83;0.95;;;4.10;1.00;;;;;;7371387;19;20025;-71
2024/02/24 04:17:55;;;;;;;1.85;1.17;;;4.10;1.00;;;;;;7366948;19;20029;-70
2024/02/24 04:20:25;;;;;;;2.15;1.33;;;3.90;1.00;;;;;;7373020;19;20478;-71
2024/02/24 04:22:55;;;;;;;2.33;1.15;;;3.90;1.00;;;;;;7374490;19;20026;-71
2024/02/24 04:25:28;;;;;;;1.52;0.80;;;3.90;1.00;;;;;;7373370;19;20387;-71
2024/02/24 04:27:58;;;;;;;2.20;1.55;;;3.90;1.00;;;;;;7371631;19;20014;-71
2024/02/24 04:30:28;;;;;;;1.83;1.08;;;3.90;1.00;;;;;;7373704;19;20094;-71
2024/02/24 04:32:58;;;;;;;2.15;1.25;;;4.00;1.00;;;;;;7368368;19;20528;-72
2024/02/24 04:35:28;;;;;;;1.13;0.65;;;3.90;1.00;;;;;;7371379;19;20030;-72
2024/02/24 04:37:58;;;;;;;0.98;0.70;;;4.00;1.00;;;;;;7372876;19;20014;-71
2024/02/24 04:40:31;;;;;;;1.83;0.88;;;4.10;1.00;;;;;;7372715;19;20882;-72
2024/02/24 04:43:01;;;;;;;0.77;0.60;;;4.20;1.00;;;;;;7372068;19;20003;-72
2024/02/24 04:45:31;;;;;;;1.10;0.60;;;4.20;1.00;;;;;;7372077;19;20089;-71
2024/02/24 04:48:01;;;;;;;1.42;0.50;;;4.30;1.00;;;;;;7372587;19;20015;-71
2024/02/24 04:50:31;;;;;;;0.35;0.30;;;4.40;1.00;;;;;;7372286;19;20373;-71
2024/02/24 04:53:01;;;;;;;1.35;0.35;;;4.50;1.00;;;;;;7372025;19;20014;-71
2024/02/24 04:55:34;;;;;;;0.98;0.60;;;4.50;1.00;;;;;;7372560;19;20096;-70
2024/02/24 04:58:04;;;;;;;1.05;0.50;;;4.50;1.00;;;;;;7371618;19;20471;-71
2024/02/24 05:00:34;;;;;;;1.00;0.45;;;4.60;1.00;;;;;;7372026;19;20010;-70
2024/02/24 05:03:05;;;;;;;0.63;0.40;;;4.70;1.00;;;;;;7369526;19;20041;-70
2024/02/24 05:05:35;;;;;;;0.63;0.40;;;4.70;1.00;;;;;;7371452;19;20011;-70
2024/02/24 05:08:06;;;;;;;2.08;0.60;;;4.70;1.00;;;;;;7371046;19;20081;-70
2024/02/24 05:10:39;;;;;;;2.33;0.50;;;4.70;1.00;;;;;;7372071;19;20433;-71
2024/02/24 05:13:09;;;;;;;1.52;0.45;;;4.70;1.00;;;;;;7367862;19;20035;-71
2024/02/24 05:15:39;;;;;;;1.00;0.70;;;4.70;1.00;;;;;;7371104;19;20011;-71
2024/02/24 05:18:09;;;;;;;1.08;0.68;;;4.70;1.00;;;;;;7371159;19;20010;-71
2024/02/24 05:20:40;;;;;;;1.52;0.68;;;4.80;1.00;;;;;;7370747;19;20022;-71
2024/02/24 05:23:10;;;;;;;1.23;1.02;;;4.80;1.00;;;;;;7367789;19;20054;-71
2024/02/24 05:25:46;;;;;;;2.45;0.70;;;4.80;1.00;;;;;;7370497;19;20014;-70
2024/02/24 05:28:19;;;;;;;1.27;0.75;;;4.80;1.00;;;;;;7370762;19;20733;-71
2024/02/24 05:30:50;;;;;;;1.67;0.60;;;4.80;1.00;;;;;;7371132;19;20036;-70
2024/02/24 05:33:20;;;;;;;2.75;1.00;;;4.80;1.00;;;;;;7367883;19;20021;-70
2024/02/24 05:35:51;;;;;;;1.17;0.70;;;4.80;1.00;;;;;;7370220;19;20029;-70
2024/02/24 05:38:21;;;;;;;1.35;0.88;;;4.70;1.00;;;;;;7370320;19;20460;-70
2024/02/24 05:40:54;;;;;;;1.15;0.88;;;4.70;1.00;;;;;;7369744;19;20010;-70
2024/02/24 05:43:24;;;;;;;2.92;1.52;;;4.70;1.00;;;;;;7368911;19;20431;-71
2024/02/24 05:45:55;;;;;;;2.05;1.20;;;4.70;1.00;;;;;;7368616;19;20017;-71
2024/02/24 05:48:29;;;;;;;1.77;1.13;;;4.70;1.00;;;;;;7371361;19;20021;-70
2024/02/24 05:51:00;;;;;;;1.90;0.95;;;4.70;1.00;;;;;;7368788;19;20489;-71
2024/02/24 05:53:31;;;;;;;2.05;1.10;;;4.70;1.00;;;;;;7343473;19;20408;-70
2024/02/24 05:56:03;;;;;;;3.15;0.80;;;4.70;1.00;;;;;;7370044;19;20010;-71
2024/02/24 05:58:33;;;;;;;1.38;0.73;;;4.70;1.00;;;;;;7369481;19;20432;-71
2024/02/24 06:01:03;;;;;;;2.55;0.80;;;4.70;1.00;;;;;;7371026;19;20015;-71
2024/02/24 06:03:34;;;;;;;1.20;0.90;;;4.60;1.00;;;;;;7365682;19;20018;-70
2024/02/24 06:06:04;;;;;;;1.25;0.90;;;4.60;1.00;;;;;;7368126;19;20049;-71
2024/02/24 06:08:35;;;;;;;1.42;0.85;;;4.70;1.00;;;;;;7368187;19;20025;-71
2024/02/24 06:11:08;;;;;;;2.00;0.80;;;4.60;1.00;;;;;;7367596;19;20012;-72
2024/02/24 06:13:38;;;;;;;4.57;1.10;;;4.70;1.00;;;;;;7366725;19;20010;-71
2024/02/24 06:16:09;;;;;;;1.63;1.10;;;4.70;1.00;;;;;;7371116;19;20006;-72
2024/02/24 06:18:39;;;;;;;1.63;0.98;;;4.70;1.00;;;;;;7371459;19;20014;-72
2024/02/24 06:21:11;;;;;;;3.50;1.42;;;4.60;1.00;;;;;;7367513;19;20347;-72
2024/02/24 06:23:41;;;;;;;1.92;1.00;;;4.60;1.00;;;;;;7366121;19;20099;-71
2024/02/24 06:26:14;;;;;;;2.20;1.00;;;4.70;1.00;;;;;;7368401;19;20054;-71
2024/02/24 06:28:45;;;;;;;3.28;0.85;;;4.70;1.00;;;;;;7369718;19;20019;-70
2024/02/24 06:31:16;;;;;;;2.05;1.30;;;4.80;1.00;;;;;;7370528;19;20459;-70
2024/02/24 06:33:46;;;;;;;1.75;1.27;;;4.80;1.00;;;;;;7363935;19;20063;-70
2024/02/24 06:36:16;;;;;;;3.42;1.38;;;4.90;1.00;;;;;;7366492;19;20015;-72
2024/02/24 06:38:46;;;;;;;3.33;1.63;;;4.90;1.00;;;;;;7369110;19;20018;-70
2024/02/24 06:41:23;;;;;;;3.58;1.40;;;4.90;1.00;;;;;;7368039;19;20015;-71
2024/02/24 06:43:54;;;;;;;2.92;1.60;;;4.90;1.00;;;;;;7367231;19;20045;-71
2024/02/24 06:46:24;;;;;;;3.97;1.55;;;4.90;1.00;;;;;;7369599;19;20040;-71
2024/02/24 06:48:54;;;;;;;2.95;1.63;;;4.80;1.00;;;;;;7367662;19;20037;-71
2024/02/24 06:51:24;;;;;;;5.10;2.00;;;4.80;1.00;;;;;;7367138;19;20244;-70
2024/02/24 06:53:55;;;;;;;2.03;1.25;;;4.80;1.00;;;;;;7366014;19;20980;-71
2024/02/24 06:56:28;;;;;;;3.28;1.88;;;4.80;1.00;;;;;;7367847;19;20022;-70
2024/02/24 06:58:59;;;;;;;4.28;1.92;;;4.80;1.00;;;;;;7377497;19;20026;-70
2024/02/24 07:01:29;;;;;;;3.53;1.55;;;4.80;1.00;;;;;;7375825;19;20026;-70
2024/02/24 07:03:59;;;;;;;3.63;1.50;;;4.80;1.00;;;;;;7375217;19;20014;-71
2024/02/24 07:06:29;;;;;;;5.30;1.90;;;4.80;1.00;;;;;;7372505;19;20734;-72
2024/02/24 07:08:59;;;;;;;2.42;1.40;;;4.80;1.00;;;;;;7376231;19;20018;-71
2024/02/24 07:11:32;;;;;;;2.22;1.73;;;4.80;1.00;;;;;;7375394;19;20014;-71
2024/02/24 07:14:03;;;;;;;1.95;1.23;;;4.80;1.00;;;;;;7375330;19;20021;-72
2024/02/24 07:16:32;;;;;;;2.22;1.20;;;4.90;1.00;;;;;;7375355;19;20006;-71
2024/02/24 07:19:02;;;;;;;2.85;1.65;;;4.90;1.00;;;;;;7375258;19;20017;-71
2024/02/24 07:21:33;;;;;;;4.80;1.58;;;4.90;1.00;;;;;;7374927;19;20081;-71
2024/02/24 07:24:02;;;;;;;2.95;1.70;;;4.90;1.00;;;;;;7372513;19;20014;-71
2024/02/24 07:26:45;;;;;;;3.65;1.70;;;4.90;1.00;;;;;;7375461;19;20035;-71
2024/02/24 07:29:20;;;;;;;4.72;1.42;;;5.00;1.00;;;;;;7368960;19;20018;-70
2024/02/24 07:31:50;;;;;;;3.85;2.10;;;5.00;1.00;;;;;;7373419;19;20011;-70
2024/02/24 07:34:20;;;;;;;4.15;1.77;;;5.00;1.00;;;;;;7370798;19;20415;-71
2024/02/24 07:36:51;;;;;;;4.25;1.60;;;5.10;1.00;;;;;;7371237;19;20094;-71
2024/02/24 07:39:21;;;;;;;6.80;1.83;;;5.10;1.00;;;;;;7371962;19;20602;-71
2024/02/24 07:41:54;;;;;;;5.78;1.85;;;5.10;1.00;;;;;;7369312;19;20014;-72
2024/02/24 07:44:24;;;;;;;3.60;1.52;;;5.10;1.00;;;;;;7371287;19;20010;-71
2024/02/24 07:46:56;;;;;;;4.95;1.52;;;5.10;1.00;;;;;;7372463;19;20124;-71
2024/02/24 07:49:26;;;;;;;3.78;1.40;;;5.20;1.00;;;;;;7373435;19;20013;-70
2024/02/24 07:51:57;;;;;;;5.75;1.90;;;5.20;1.00;;;;;;7370739;19;20018;-70
2024/02/24 07:54:28;;;;;;;2.50;1.35;;;5.30;1.00;;;;;;7371247;19;20098;-71
2024/02/24 07:57:00;;;;;;;2.35;1.08;;;5.40;1.00;;;;;;7372622;19;20022;-71
2024/02/24 07:59:30;;;;;;;1.80;1.20;;;5.50;1.00;;;;;;7373267;19;20027;-71
2024/02/24 08:02:01;;;;;;;3.08;1.20;;;5.60;1.00;;;;;;7372414;19;20010;-70
2024/02/24 08:04:31;;;;;;;3.75;1.30;;;5.60;1.00;;;;;;7371561;19;20014;-71
2024/02/24 08:07:01;;;;;;;2.75;1.08;;;5.70;1.00;;;;;;7372822;19;20049;-70
2024/02/24 08:09:32;;;;;;;1.10;0.82;;;5.80;1.00;;;;;;7371670;19;20109;-69
2024/02/24 08:12:05;;;;;;;3.83;1.20;;;5.80;1.00;;;;;;7372276;19;20017;-71
2024/02/24 08:14:36;;;;;;;1.33;0.70;;;5.80;1.00;;;;;;7371504;19;20011;-70
2024/02/24 08:17:06;;;;;;;2.88;0.60;;;5.80;1.00;;;;;;7373887;19;20014;-71
2024/02/24 08:19:36;;;;;;;3.45;0.65;;;5.80;1.00;;;;;;7373488;19;20018;-71
2024/02/24 08:22:07;;;;;;;1.75;0.50;;;5.80;1.00;;;;;;7370924;19;20022;-75
2024/02/24 08:24:37;;;;;;;0.77;0.50;;;5.80;1.00;;;;;;7371221;19;20014;-71
2024/02/24 08:27:10;;;;;;;0.95;0.50;;;5.70;1.00;;;;;;7372504;19;20014;-72
2024/02/24 08:29:40;;;;;;;2.65;1.05;;;5.70;1.00;;;;;;7373418;19;20017;-71
2024/02/24 08:32:10;;;;;;;2.25;0.70;;;5.70;1.00;;;;;;7370654;19;20076;-70
2024/02/24 08:34:40;;;;;;;1.55;0.57;;;5.70;1.00;;;;;;7372366;19;20017;-72
2024/02/24 08:37:10;;;;;;;1.00;0.50;;;5.80;1.00;;;;;;7371245;19;20805;-70
2024/02/24 08:39:40;;;;;;;0.85;0.50;;;5.90;1.00;;;;;;7375386;19;20467;-70
2024/02/24 08:42:12;;;;;;;0.82;0.50;;;6.20;1.00;;;;;;7371863;19;20011;-71
2024/02/24 08:44:42;;;;;;;2.25;0.85;;;6.40;1.00;;;;;;7371648;19;20492;-71
2024/02/24 08:47:13;;;;;;;0.82;0.40;;;6.50;1.00;;;;;;7370925;19;20026;-70
2024/02/24 08:49:43;;;;;;;2.10;0.70;;;6.70;1.00;;;;;;7370425;19;20021;-71
2024/02/24 08:52:13;;;;;;;7.07;0.82;;;6.80;1.00;;;;;;7371855;19;20015;-70
2024/02/24 08:54:43;;;;;;;0.70;0.40;;;6.90;1.00;;;;;;7368260;19;20010;-71
2024/02/24 08:57:16;;;;;;;0.80;0.43;;;6.90;1.00;;;;;;7370481;19;20014;-70
2024/02/24 08:59:47;;;;;;;2.15;0.55;;;7.00;1.00;;;;;;7372316;19;20022;-71
2024/02/24 09:02:19;;;;;;;1.50;0.50;;;7.10;1.00;;;;;;7370517;19;20447;-70
2024/02/24 09:04:49;;;;;;;1.02;0.47;;;7.20;1.00;;;;;;7370934;19;20033;-71
2024/02/24 09:07:20;;;;;;;0.70;0.40;;;7.40;1.00;;;;;;7370183;19;20007;-71
2024/02/24 09:09:50;;;;;;;0.80;0.50;;;7.50;1.00;;;;;;7371620;19;20011;-71
2024/02/24 09:12:23;;;;;;;0.43;0.40;;;7.50;1.00;;;;;;7370661;19;20010;-72
2024/02/24 09:14:53;;;;;;;0.38;0.28;;;7.50;1.00;;;;;;7372231;19;20006;-72
2024/02/24 09:17:23;;;;;;;1.02;0.47;;;7.30;1.00;;;;;;7367754;19;20011;-71
2024/02/24 09:19:53;;;;;;;0.75;0.52;;;7.40;1.00;;;;;;7369387;19;20379;-72
2024/02/24 09:22:23;;;;;;;1.23;0.50;;;7.60;1.00;;;;;;7369223;19;20010;-71
2024/02/24 09:24:53;;;;;;;0.50;0.43;;;7.70;1.00;;;;;;7369530;19;20018;-71
2024/02/24 09:27:28;;;;;;;1.27;0.40;;;8.00;1.00;;;;;;7370951;19;20014;-70
2024/02/24 09:30:01;;;;;;;1.90;0.40;;;8.20;1.00;;;;;;7367626;19;20006;-71
2024/02/24 09:32:31;;;;;;;0.73;0.40;;;8.10;1.00;;;;;;7367421;19;20474;-72
2024/02/24 09:35:01;;;;;;;0.68;0.40;;;8.00;1.00;;;;;;7366974;19;20537;-71
2024/02/24 09:37:32;;;;;;;0.85;0.45;;;7.80;1.00;;;;;;7367230;19;20007;-71
2024/02/24 09:40:03;;;;;;;4.28;1.30;;;7.80;1.00;;;;;;7368192;19;20010;-72
2024/02/24 09:42:36;;;;;;;0.60;0.38;;;7.80;1.00;;;;;;7366818;19;20029;-71
2024/02/24 09:45:13;;;;;;;3.05;0.40;;;7.80;1.00;;;;;;7366816;19;20048;-71
2024/02/24 09:47:45;;;;;;;0.90;0.30;;;7.80;1.00;;;;;;7367514;19;20011;-71
2024/02/24 09:50:15;;;;;;;0.70;0.50;;;7.80;1.00;;;;;;7368004;19;20547;-70
2024/02/24 09:52:45;;;;;;;0.47;0.30;;;7.70;1.00;;;;;;7369168;19;20369;-71
2024/02/24 09:55:15;;;;;;;0.20;0.20;;;7.50;1.00;;;;;;7366641;19;20021;-70
2024/02/24 09:57:49;;;;;;;0.52;0.22;;;7.20;1.00;;;;;;7369871;19;20977;-71
2024/02/24 10:00:19;;;;;;;0.45;0.22;;;7.30;1.00;;;;;;7368959;19;20015;-71
2024/02/24 10:02:50;;;;;;;0.32;0.20;;;7.30;1.00;;;;;;7368060;19;20034;-71
2024/02/24 10:05:20;;;;;;;1.48;0.50;;;7.10;1.00;;;;;;7366890;19;20114;-71
2024/02/24 10:07:51;;;;;;;0.47;0.20;;;7.00;1.00;;;;;;7368411;19;20030;-70
2024/02/24 10:10:24;;;;;;;1.60;0.50;;;7.00;1.00;;;;;;7367453;19;20575;-71
2024/02/24 10:13:01;;;;;;;2.15;0.45;;;6.90;1.00;;;;;;7369664;19;20015;-71
2024/02/24 10:15:32;;;;;;;0.88;0.50;;;6.70;1.00;;;;;;7367677;19;20017;-72
2024/02/24 10:18:02;;;;;;;1.55;0.30;;;6.70;1.00;;;;;;7367993;19;20118;-72
2024/02/24 10:20:33;;;;;;;0.50;0.30;;;7.10;1.00;;;;;;7368556;19;20042;-70
2024/02/24 10:23:03;;;;;;;0.60;0.47;;;7.10;1.00;;;;;;7366857;19;20011;-72
2024/02/24 10:25:33;;;;;;;0.55;0.40;;;7.10;1.00;;;;;;7367694;19;20021;-72
2024/02/24 10:28:07;;;;;;;0.40;0.30;;;7.10;1.00;;;;;;7367492;19;20768;-71
2024/02/24 10:30:37;;;;;;;0.30;0.17;;;7.30;1.00;;;;;;7368305;19;20014;-72
2024/02/24 10:33:09;;;;;;;1.95;0.40;;;7.40;1.00;;;;;;7366389;19;20022;-70
2024/02/24 10:35:39;;;;;;;1.02;0.30;;;7.70;1.00;;;;;;7364329;19;20014;-70
2024/02/24 10:38:10;;;;;;;0.17;0.10;;;7.40;1.00;;;;;;7369972;19;20017;-70
2024/02/24 10:41:02;;;;;;;0.70;0.30;;;7.20;1.00;;;;;;6860010;19;2003985;-70
2024/02/24 10:43:36;;;;;;;0.32;0.20;;;7.30;1.00;;;;;;7365910;19;20013;-71
2024/02/24 10:46:06;;;;;;;;;;;7.60;1.00;;;;;;7367657;19;20107;-71
2024/02/24 10:48:36;;;;;;;1.63;0.20;;;8.10;1.00;;;;;;7365083;19;19937;-71
2024/02/24 10:51:07;;;;;;;0.82;0.22;;;8.00;1.00;;;;;;7365421;19;20030;-71
2024/02/24 10:53:38;;;;;;;0.70;0.30;;;8.00;1.00;;;;;;7367277;19;20030;-70
2024/02/24 10:56:09;;;;;;;0.75;0.35;;;8.10;1.00;;;;;;7364247;19;20020;-71
2024/02/24 10:58:42;;;;;;;0.50;0.38;;;8.70;1.00;;;;;;7367615;19;20129;-70
2024/02/24 11:01:12;;;;;;;1.98;0.43;;;8.60;1.00;;;;;;7365417;19;20031;-71
2024/02/24 11:03:44;;;;;;;0.43;0.30;;;8.90;1.00;;;;;;7367979;19;20126;-71
2024/02/24 11:06:14;;;;;;;0.22;0.20;;;8.50;1.00;;;;;;7368506;19;20015;-71
2024/02/24 11:08:48;;;;;;;0.50;0.30;;;8.40;1.00;;;;;;7365538;19;20017;-71
2024/02/24 11:11:19;;;;;;;0.63;0.25;;;8.50;1.00;;;;;;7365851;19;20007;-71
2024/02/24 11:13:51;;;;;;;0.20;0.20;;;8.40;1.00;;;;;;7361927;19;20021;-70
2024/02/24 11:16:38;;;;;;;0.55;0.32;;;8.60;1.00;;;;;;6855237;19;2004088;-72
2024/02/24 11:19:10;;;;;;;1.20;0.30;;;8.50;1.00;;;;;;7365189;19;20049;-71
2024/02/24 11:22:00;;;;;;;1.30;0.20;;;8.70;1.00;;;;;;7356004;19;20019;-70
2024/02/24 11:24:35;;;;;;;1.50;0.60;;;8.70;1.00;;;;;;6855207;19;2004613;-71
2024/02/24 11:27:06;;;;;;;0.63;0.40;;;8.80;1.00;;;;;;7363250;19;20018;-73
2024/02/24 11:29:39;;;;;;;1.17;0.50;;;8.80;1.00;;;;;;7364997;19;20082;-71
2024/02/24 11:32:17;;;;;;;1.33;0.22;;;9.00;1.00;;;;;;7363497;19;20053;-71
2024/02/24 11:34:47;;;;;;;0.35;0.25;;;9.30;1.00;;;;;;7365924;19;20011;-72
2024/02/24 11:37:18;;;;;;;2.47;0.98;;;9.60;1.00;;;;;;7367998;19;20682;-72
2024/02/24 11:39:49;;;;;;;1.45;0.55;;;9.90;1.00;;;;;;7367124;19;20365;-71
2024/02/24 11:42:20;;;;;;;0.93;0.40;;;10.00;1.00;;;;;;7365236;19;20010;-71
2024/02/24 11:44:54;;;;;;;2.65;0.68;;;9.70;1.00;;;;;;7368337;19;20034;-70
2024/02/24 11:47:24;;;;;;;2.35;0.73;;;9.80;1.00;;;;;;7369778;19;20363;-71
2024/02/24 11:49:55;;;;;;;1.10;0.32;;;9.70;1.00;;;;;;7370974;19;20018;-70
2024/02/24 11:52:25;;;;;;;5.07;2.92;;;9.60;1.00;;;;;;7370347;19;20348;-70
2024/02/24 11:54:56;;;;;;;0.90;0.70;;;9.30;1.00;;;;;;7370913;19;20022;-70
2024/02/24 11:57:27;;;;;;;0.73;0.45;;;9.20;1.00;;;;;;7358598;19;20747;-71
2024/02/24 11:59:59;;;;;;;1.52;0.43;;;9.40;1.00;;;;;;7359608;19;20018;-71
2024/02/24 12:02:30;;;;;;;1.02;0.35;;;9.40;1.00;;;;;;7356749;19;20007;-71
2024/02/24 12:05:15;;;;;;;1.58;0.40;;;9.30;1.00;;;;;;7356080;19;20018;-71
2024/02/24 12:07:46;;;;;;;2.05;0.40;;;9.00;1.00;;;;;;7359449;19;20166;-72
2024/02/24 12:10:17;;;;;;;0.82;0.40;;;9.20;1.00;;;;;;7359553;19;20019;-71
2024/02/24 12:12:47;;;;;;;0.93;0.63;;;9.10;1.00;;;;;;7358675;19;20014;-71
2024/02/24 12:15:20;;;;;;;0.95;0.28;;;9.20;1.00;;;;;;7356251;19;20022;-71
2024/02/24 12:17:51;;;;;;;1.35;0.50;;;9.10;1.00;;;;;;7359412;19;20023;-72
2024/02/24 12:20:26;;;;;;;0.82;0.32;;;9.30;1.00;;;;;;7358808;19;20014;-72
2024/02/24 12:22:56;;;;;;;0.95;0.40;;;9.30;1.00;;;;;;7358920;19;20014;-72
2024/02/24 12:25:29;;;;;;;1.95;0.60;;;9.20;1.00;;;;;;7355316;19;20021;-70
2024/02/24 12:27:59;;;;;;;1.35;0.50;;;9.60;1.00;;;;;;7357964;19;20073;-69
2024/02/24 12:30:37;;;;;;;0.88;0.50;;;9.70;1.00;;;;;;7355291;19;21545;-71
2024/02/24 12:33:08;;;;;;;1.33;0.55;;;9.30;1.00;;;;;;7360574;19;20047;-70
2024/02/24 12:35:41;;;;;;;2.03;0.50;;;9.80;1.00;;;;;;7355639;19;20015;-70
2024/02/24 12:38:17;;;;;;;1.15;0.40;;;10.00;1.00;;;;;;7350708;19;20057;-70
2024/02/24 12:40:47;;;;;;;1.35;0.55;;;9.80;1.00;;;;;;7355255;19;20058;-71
2024/02/24 12:43:17;;;;;;;0.85;0.40;;;10.20;1.00;;;;;;7354482;19;20378;-71
2024/02/24 12:45:51;;;;;;;0.68;0.20;;;10.20;1.00;;;;;;7351004;19;20007;-71
2024/02/24 12:48:22;;;;;;;0.88;0.22;;;10.40;1.00;;;;;;7357516;19;20132;-72
2024/02/24 12:50:52;;;;;;;1.52;0.30;;;10.30;1.00;;;;;;7354860;19;20503;-71
2024/02/24 12:53:23;;;;;;;1.48;0.60;;;10.40;1.00;;;;;;7354417;19;20014;-71
2024/02/24 12:55:54;;;;;;;0.63;0.30;;;10.40;1.00;;;;;;7353707;19;20014;-71
2024/02/24 12:58:25;;;;;;;0.60;0.40;;;10.50;1.00;;;;;;7353228;19;20547;-72
2024/02/24 13:00:59;;;;;;;0.95;0.40;;;10.40;1.00;;;;;;7353393;19;20022;-72
2024/02/24 13:03:29;;;;;;;1.13;0.40;;;10.40;1.00;;;;;;7352743;19;20487;-71
2024/02/24 13:06:00;;;;;;;0.80;0.40;;;10.20;1.00;;;;;;7351485;19;20523;-71
2024/02/24 13:08:31;;;;;;;2.65;0.45;;;10.30;1.00;;;;;;7352127;19;20018;-71
2024/02/24 13:11:01;;;;;;;0.68;0.40;;;10.40;1.00;;;;;;7350823;19;20383;-73
2024/02/24 13:13:31;;;;;;;2.55;0.50;;;10.40;1.00;;;;;;7350525;19;22707;-70
2024/02/24 13:16:04;;;;;;;0.77;0.50;;;10.60;1.00;;;;;;7346822;19;20561;-71
2024/02/24 13:18:34;;;;;;;1.30;0.50;;;10.70;1.00;;;;;;7349618;19;20027;-71
2024/02/24 13:21:04;;;;;;;0.90;0.47;;;10.50;1.00;;;;;;7353326;19;20053;-72
2024/02/24 13:23:34;;;;;;;0.65;0.50;;;10.40;1.00;;;;;;7354192;19;20126;-71
2024/02/24 13:26:04;;;;;;;1.23;0.60;;;10.30;1.00;;;;;;7351438;19;20034;-71
2024/02/24 13:28:34;;;;;;;4.60;0.70;;;10.20;1.00;;;;;;7357564;19;20060;-71